sensor_id;sensor_type;location;lat;lon;timestamp;temperature;humidity
51793;DHT22;37850;53.178;6.376;2024-03-02T00:02:20;7.80;99.90
51793;DHT22;37850;53.178;6.376;2024-03-02T00:04:45;8.10;99.90
51793;DHT22;37850;53.178;6.376;2024-03-02T00:07:14;7.80;99.90
51793;DHT22;37850;53.178;6.376;2024-03-02T00:09:40;7.80;99.90
51793;DHT22;37850;53.178;6.376;2024-03-02T00:12:06;7.70;99.90
51793;DHT22;37850;53.178;6.376;2024-03-02T00:14:32;7.80;99.90
51793;DHT22;37850;53.178;6.376;2024-03-02T00:16:59;7.70;99.90
51793;DHT22;37850;53.178;6.376;2024-03-02T00:19:24;7.90;99.90
51793;DHT22;37850;53.178;6.376;2024-03-02T00:21:50;7.70;99.90
51793;DHT22;37850;53.178;6.376;2024-03-02T00:24:33;7.70;99.90
51793;DHT22;37850;53.178;6.376;2024-03-02T00:26:59;7.70;99.90
51793;DHT22;37850;53.178;6.376;2024-03-02T00:29:25;7.90;99.90
51793;DHT22;37850;53.178;6.376;2024-03-02T00:31:52;7.70;99.90
51793;DHT22;37850;53.178;6.376;2024-03-02T00:34:18;7.70;99.90
51793;DHT22;37850;53.178;6.376;2024-03-02T00:36:45;7.70;99.90
51793;DHT22;37850;53.178;6.376;2024-03-02T00:39:12;7.70;99.90
51793;DHT22;37850;53.178;6.376;2024-03-02T00:41:40;7.70;99.90
51793;DHT22;37850;53.178;6.376;2024-03-02T00:44:07;7.70;99.90
51793;DHT22;37850;53.178;6.376;2024-03-02T00:46:39;7.80;99.90
51793;DHT22;37850;53.178;6.376;2024-03-02T00:49:21;7.70;99.90
51793;DHT22;37850;53.178;6.376;2024-03-02T00:51:47;7.80;99.90
51793;DHT22;37850;53.178;6.376;2024-03-02T00:54:20;7.80;99.90
51793;DHT22;37850;53.178;6.376;2024-03-02T00:56:47;7.80;99.90
51793;DHT22;37850;53.178;6.376;2024-03-02T00:59:13;7.80;99.90
51793;DHT22;37850;53.178;6.376;2024-03-02T01:01:39;7.80;99.90
51793;DHT22;37850;53.178;6.376;2024-03-02T01:04:05;7.80;99.90
51793;DHT22;37850;53.178;6.376;2024-03-02T01:06:30;7.70;99.90
51793;DHT22;37850;53.178;6.376;2024-03-02T01:08:56;7.80;99.90
51793;DHT22;37850;53.178;6.376;2024-03-02T01:11:22;7.80;99.90
51793;DHT22;37850;53.178;6.376;2024-03-02T01:13:49;7.80;99.90
51793;DHT22;37850;53.178;6.376;2024-03-02T01:16:15;7.80;99.90
51793;DHT22;37850;53.178;6.376;2024-03-02T01:18:41;7.80;99.90
51793;DHT22;37850;53.178;6.376;2024-03-02T01:21:07;7.80;99.90
51793;DHT22;37850;53.178;6.376;2024-03-02T01:23:33;7.80;99.90
51793;DHT22;37850;53.178;6.376;2024-03-02T01:25:59;7.90;99.90
51793;DHT22;37850;53.178;6.376;2024-03-02T01:28:25;7.90;99.90
51793;DHT22;37850;53.178;6.376;2024-03-02T01:30:50;7.90;99.90
51793;DHT22;37850;53.178;6.376;2024-03-02T01:33:20;7.90;99.90
51793;DHT22;37850;53.178;6.376;2024-03-02T01:35:46;7.90;99.90
51793;DHT22;37850;53.178;6.376;2024-03-02T01:38:13;7.90;99.90
51793;DHT22;37850;53.178;6.376;2024-03-02T01:40:38;7.90;99.90
51793;DHT22;37850;53.178;6.376;2024-03-02T01:43:05;8.10;99.90
51793;DHT22;37850;53.178;6.376;2024-03-02T01:45:31;8.10;99.90
51793;DHT22;37850;53.178;6.376;2024-03-02T01:48:00;8.50;99.90
51793;DHT22;37850;53.178;6.376;2024-03-02T01:50:31;7.90;99.90
51793;DHT22;37850;53.178;6.376;2024-03-02T01:52:58;7.90;99.90
51793;DHT22;37850;53.178;6.376;2024-03-02T01:55:24;7.90;99.90
51793;DHT22;37850;53.178;6.376;2024-03-02T01:57:51;7.90;99.90
51793;DHT22;37850;53.178;6.376;2024-03-02T02:00:18;7.90;99.90
51793;DHT22;37850;53.178;6.376;2024-03-02T02:02:45;8.00;99.90
51793;DHT22;37850;53.178;6.376;2024-03-02T02:05:12;8.00;99.90
51793;DHT22;37850;53.178;6.376;2024-03-02T02:07:38;7.90;99.90
51793;DHT22;37850;53.178;6.376;2024-03-02T02:10:04;8.00;99.90
51793;DHT22;37850;53.178;6.376;2024-03-02T02:12:30;8.00;99.90
51793;DHT22;37850;53.178;6.376;2024-03-02T02:14:56;8.00;99.90
51793;DHT22;37850;53.178;6.376;2024-03-02T02:17:21;8.10;99.90
51793;DHT22;37850;53.178;6.376;2024-03-02T02:19:47;8.00;99.90
51793;DHT22;37850;53.178;6.376;2024-03-02T02:22:13;8.50;99.90
51793;DHT22;37850;53.178;6.376;2024-03-02T02:24:42;8.10;99.90
51793;DHT22;37850;53.178;6.376;2024-03-02T02:27:09;8.50;99.90
51793;DHT22;37850;53.178;6.376;2024-03-02T02:29:35;8.00;99.90
51793;DHT22;37850;53.178;6.376;2024-03-02T02:32:01;8.50;99.90
51793;DHT22;37850;53.178;6.376;2024-03-02T02:34:28;8.20;99.90
51793;DHT22;37850;53.178;6.376;2024-03-02T02:36:55;8.00;99.90
51793;DHT22;37850;53.178;6.376;2024-03-02T02:39:21;8.30;99.90
51793;DHT22;37850;53.178;6.376;2024-03-02T02:41:48;8.60;99.90
51793;DHT22;37850;53.178;6.376;2024-03-02T02:44:14;8.10;99.90
51793;DHT22;37850;53.178;6.376;2024-03-02T02:46:40;8.00;99.90
51793;DHT22;37850;53.178;6.376;2024-03-02T02:49:06;8.00;99.90
51793;DHT22;37850;53.178;6.376;2024-03-02T02:51:32;8.60;99.90
51793;DHT22;37850;53.178;6.376;2024-03-02T02:53:59;8.00;99.90
51793;DHT22;37850;53.178;6.376;2024-03-02T02:56:25;8.00;99.90
51793;DHT22;37850;53.178;6.376;2024-03-02T02:58:50;8.00;99.90
51793;DHT22;37850;53.178;6.376;2024-03-02T03:01:16;8.00;99.90
51793;DHT22;37850;53.178;6.376;2024-03-02T03:03:45;8.00;99.90
51793;DHT22;37850;53.178;6.376;2024-03-02T03:06:11;8.00;99.90
51793;DHT22;37850;53.178;6.376;2024-03-02T03:08:37;8.00;99.90
51793;DHT22;37850;53.178;6.376;2024-03-02T03:11:04;8.00;99.90
51793;DHT22;37850;53.178;6.376;2024-03-02T03:13:33;8.00;99.90
51793;DHT22;37850;53.178;6.376;2024-03-02T03:15:59;7.90;99.90
51793;DHT22;37850;53.178;6.376;2024-03-02T03:18:25;8.00;99.90
51793;DHT22;37850;53.178;6.376;2024-03-02T03:20:51;7.90;99.90
51793;DHT22;37850;53.178;6.376;2024-03-02T03:23:17;7.90;99.90
51793;DHT22;37850;53.178;6.376;2024-03-02T03:25:43;8.00;99.90
51793;DHT22;37850;53.178;6.376;2024-03-02T03:28:10;7.90;99.90
51793;DHT22;37850;53.178;6.376;2024-03-02T03:30:39;7.90;99.90
51793;DHT22;37850;53.178;6.376;2024-03-02T03:33:05;7.90;99.90
51793;DHT22;37850;53.178;6.376;2024-03-02T03:35:32;7.90;99.90
51793;DHT22;37850;53.178;6.376;2024-03-02T03:37:57;7.80;99.90
51793;DHT22;37850;53.178;6.376;2024-03-02T03:40:27;7.90;99.90
51793;DHT22;37850;53.178;6.376;2024-03-02T03:42:53;7.80;99.90
51793;DHT22;37850;53.178;6.376;2024-03-02T03:45:19;7.80;99.90
51793;DHT22;37850;53.178;6.376;2024-03-02T03:47:45;7.80;99.90
51793;DHT22;37850;53.178;6.376;2024-03-02T03:50:11;7.80;99.90
51793;DHT22;37850;53.178;6.376;2024-03-02T03:52:37;7.80;99.90
51793;DHT22;37850;53.178;6.376;2024-03-02T03:55:03;7.80;99.90
51793;DHT22;37850;53.178;6.376;2024-03-02T03:57:30;7.80;99.90
51793;DHT22;37850;53.178;6.376;2024-03-02T03:59:56;7.80;99.90
51793;DHT22;37850;53.178;6.376;2024-03-02T04:02:22;7.80;99.90
51793;DHT22;37850;53.178;6.376;2024-03-02T04:04:47;7.80;99.90
51793;DHT22;37850;53.178;6.376;2024-03-02T04:07:13;8.00;99.90
51793;DHT22;37850;53.178;6.376;2024-03-02T04:09:39;7.90;99.90
51793;DHT22;37850;53.178;6.376;2024-03-02T04:12:05;7.90;99.90
51793;DHT22;37850;53.178;6.376;2024-03-02T04:14:31;7.90;99.90
51793;DHT22;37850;53.178;6.376;2024-03-02T04:16:57;7.90;99.90
51793;DHT22;37850;53.178;6.376;2024-03-02T04:19:23;7.90;99.90
51793;DHT22;37850;53.178;6.376;2024-03-02T04:21:48;7.90;99.90
51793;DHT22;37850;53.178;6.376;2024-03-02T04:24:14;7.90;99.90
51793;DHT22;37850;53.178;6.376;2024-03-02T04:26:39;7.90;99.90
51793;DHT22;37850;53.178;6.376;2024-03-02T04:29:05;7.90;99.90
51793;DHT22;37850;53.178;6.376;2024-03-02T04:31:31;7.90;99.90
51793;DHT22;37850;53.178;6.376;2024-03-02T04:33:56;8.10;99.90
51793;DHT22;37850;53.178;6.376;2024-03-02T04:36:22;7.90;99.90
51793;DHT22;37850;53.178;6.376;2024-03-02T04:38:49;8.00;99.90
51793;DHT22;37850;53.178;6.376;2024-03-02T04:41:14;7.90;99.90
51793;DHT22;37850;53.178;6.376;2024-03-02T04:43:40;7.90;99.90
51793;DHT22;37850;53.178;6.376;2024-03-02T04:46:07;8.10;99.90
51793;DHT22;37850;53.178;6.376;2024-03-02T04:48:33;7.90;99.90
51793;DHT22;37850;53.178;6.376;2024-03-02T04:50:59;7.90;99.90
51793;DHT22;37850;53.178;6.376;2024-03-02T04:53:25;7.90;99.90
51793;DHT22;37850;53.178;6.376;2024-03-02T04:55:51;7.90;99.90
51793;DHT22;37850;53.178;6.376;2024-03-02T04:58:19;7.80;99.90
51793;DHT22;37850;53.178;6.376;2024-03-02T05:00:45;7.90;99.90
51793;DHT22;37850;53.178;6.376;2024-03-02T05:03:12;7.90;99.90
51793;DHT22;37850;53.178;6.376;2024-03-02T05:05:38;7.80;99.90
51793;DHT22;37850;53.178;6.376;2024-03-02T05:08:04;7.80;99.90
51793;DHT22;37850;53.178;6.376;2024-03-02T05:10:30;7.80;99.90
51793;DHT22;37850;53.178;6.376;2024-03-02T05:12:56;7.80;99.90
51793;DHT22;37850;53.178;6.376;2024-03-02T05:15:25;7.80;99.90
51793;DHT22;37850;53.178;6.376;2024-03-02T05:17:51;7.80;99.90
51793;DHT22;37850;53.178;6.376;2024-03-02T05:20:17;8.10;99.90
51793;DHT22;37850;53.178;6.376;2024-03-02T05:22:42;7.80;99.90
51793;DHT22;37850;53.178;6.376;2024-03-02T05:25:08;7.80;99.90
51793;DHT22;37850;53.178;6.376;2024-03-02T05:27:36;7.80;99.90
51793;DHT22;37850;53.178;6.376;2024-03-02T05:30:02;7.80;99.90
51793;DHT22;37850;53.178;6.376;2024-03-02T05:32:28;7.80;99.90
51793;DHT22;37850;53.178;6.376;2024-03-02T05:34:54;7.80;99.90
51793;DHT22;37850;53.178;6.376;2024-03-02T05:37:20;7.70;99.90
51793;DHT22;37850;53.178;6.376;2024-03-02T05:39:46;7.70;99.90
51793;DHT22;37850;53.178;6.376;2024-03-02T05:42:11;7.70;99.90
51793;DHT22;37850;53.178;6.376;2024-03-02T05:44:37;7.70;99.90
51793;DHT22;37850;53.178;6.376;2024-03-02T05:47:03;7.70;99.90
51793;DHT22;37850;53.178;6.376;2024-03-02T05:49:29;7.70;99.90
51793;DHT22;37850;53.178;6.376;2024-03-02T05:51:55;7.70;99.90
51793;DHT22;37850;53.178;6.376;2024-03-02T05:54:21;7.70;99.90
51793;DHT22;37850;53.178;6.376;2024-03-02T05:56:47;7.70;99.90
51793;DHT22;37850;53.178;6.376;2024-03-02T05:59:13;7.70;99.90
51793;DHT22;37850;53.178;6.376;2024-03-02T06:01:42;7.70;99.90
51793;DHT22;37850;53.178;6.376;2024-03-02T06:04:09;7.70;99.90
51793;DHT22;37850;53.178;6.376;2024-03-02T06:06:36;7.70;99.90
51793;DHT22;37850;53.178;6.376;2024-03-02T06:09:03;7.70;99.90
51793;DHT22;37850;53.178;6.376;2024-03-02T06:11:39;7.70;99.90
51793;DHT22;37850;53.178;6.376;2024-03-02T06:14:06;7.70;99.90
51793;DHT22;37850;53.178;6.376;2024-03-02T06:16:32;7.70;99.90
51793;DHT22;37850;53.178;6.376;2024-03-02T06:18:58;7.70;99.90
51793;DHT22;37850;53.178;6.376;2024-03-02T06:21:25;7.60;99.90
51793;DHT22;37850;53.178;6.376;2024-03-02T06:23:50;7.70;99.90
51793;DHT22;37850;53.178;6.376;2024-03-02T06:26:16;7.60;99.90
51793;DHT22;37850;53.178;6.376;2024-03-02T06:28:42;7.70;99.90
51793;DHT22;37850;53.178;6.376;2024-03-02T06:31:08;7.60;99.90
51793;DHT22;37850;53.178;6.376;2024-03-02T06:33:34;7.60;99.90
51793;DHT22;37850;53.178;6.376;2024-03-02T06:36:02;7.70;99.90
51793;DHT22;37850;53.178;6.376;2024-03-02T06:38:28;7.60;99.90
51793;DHT22;37850;53.178;6.376;2024-03-02T06:40:54;7.60;99.90
51793;DHT22;37850;53.178;6.376;2024-03-02T06:43:21;7.60;99.90
51793;DHT22;37850;53.178;6.376;2024-03-02T06:45:50;7.60;99.90
51793;DHT22;37850;53.178;6.376;2024-03-02T06:48:19;7.60;99.90
51793;DHT22;37850;53.178;6.376;2024-03-02T06:50:46;7.70;99.90
51793;DHT22;37850;53.178;6.376;2024-03-02T06:53:13;7.60;99.90
51793;DHT22;37850;53.178;6.376;2024-03-02T06:55:39;7.60;99.90
51793;DHT22;37850;53.178;6.376;2024-03-02T06:58:04;7.60;99.90
51793;DHT22;37850;53.178;6.376;2024-03-02T07:00:30;7.60;99.90
51793;DHT22;37850;53.178;6.376;2024-03-02T07:02:56;7.60;99.90
51793;DHT22;37850;53.178;6.376;2024-03-02T07:05:21;7.60;99.90
51793;DHT22;37850;53.178;6.376;2024-03-02T07:07:47;7.60;99.90
51793;DHT22;37850;53.178;6.376;2024-03-02T07:10:13;7.60;99.90
51793;DHT22;37850;53.178;6.376;2024-03-02T07:12:38;7.60;99.90
51793;DHT22;37850;53.178;6.376;2024-03-02T07:15:04;7.60;99.90
51793;DHT22;37850;53.178;6.376;2024-03-02T07:17:31;7.60;99.90
51793;DHT22;37850;53.178;6.376;2024-03-02T07:19:57;7.60;99.90
51793;DHT22;37850;53.178;6.376;2024-03-02T07:22:23;7.60;99.90
51793;DHT22;37850;53.178;6.376;2024-03-02T07:24:49;8.20;99.90
51793;DHT22;37850;53.178;6.376;2024-03-02T07:27:16;7.70;99.90
51793;DHT22;37850;53.178;6.376;2024-03-02T07:29:42;7.60;99.90
51793;DHT22;37850;53.178;6.376;2024-03-02T07:32:09;7.50;99.90
51793;DHT22;37850;53.178;6.376;2024-03-02T07:34:35;7.50;99.90
51793;DHT22;37850;53.178;6.376;2024-03-02T07:37:01;7.50;99.90
51793;DHT22;37850;53.178;6.376;2024-03-02T07:39:27;7.50;99.90
51793;DHT22;37850;53.178;6.376;2024-03-02T07:41:53;7.50;99.90
51793;DHT22;37850;53.178;6.376;2024-03-02T07:44:19;7.50;99.90
51793;DHT22;37850;53.178;6.376;2024-03-02T07:46:46;7.60;99.90
51793;DHT22;37850;53.178;6.376;2024-03-02T07:49:12;7.70;99.90
51793;DHT22;37850;53.178;6.376;2024-03-02T07:51:41;7.70;99.90
51793;DHT22;37850;53.178;6.376;2024-03-02T07:54:07;7.80;99.90
51793;DHT22;37850;53.178;6.376;2024-03-02T07:56:33;7.90;99.90
51793;DHT22;37850;53.178;6.376;2024-03-02T07:58:59;7.90;99.90
51793;DHT22;37850;53.178;6.376;2024-03-02T08:01:32;8.00;99.90
51793;DHT22;37850;53.178;6.376;2024-03-02T08:04:01;8.10;99.90
51793;DHT22;37850;53.178;6.376;2024-03-02T08:06:29;8.10;99.90
51793;DHT22;37850;53.178;6.376;2024-03-02T08:08:56;8.10;99.90
51793;DHT22;37850;53.178;6.376;2024-03-02T08:11:22;8.40;99.90
51793;DHT22;37850;53.178;6.376;2024-03-02T08:13:48;8.30;99.90
51793;DHT22;37850;53.178;6.376;2024-03-02T08:16:17;8.30;99.90
51793;DHT22;37850;53.178;6.376;2024-03-02T08:18:49;8.40;99.90
51793;DHT22;37850;53.178;6.376;2024-03-02T08:21:16;8.50;99.90
51793;DHT22;37850;53.178;6.376;2024-03-02T08:23:42;8.50;99.90
51793;DHT22;37850;53.178;6.376;2024-03-02T08:26:09;8.60;99.90
51793;DHT22;37850;53.178;6.376;2024-03-02T08:28:35;8.70;99.90
51793;DHT22;37850;53.178;6.376;2024-03-02T08:31:03;9.20;99.90
51793;DHT22;37850;53.178;6.376;2024-03-02T08:33:29;8.90;99.90
51793;DHT22;37850;53.178;6.376;2024-03-02T08:35:55;8.80;99.90
51793;DHT22;37850;53.178;6.376;2024-03-02T08:38:21;8.80;99.90
51793;DHT22;37850;53.178;6.376;2024-03-02T08:40:47;8.80;99.90
51793;DHT22;37850;53.178;6.376;2024-03-02T08:43:13;8.80;99.90
51793;DHT22;37850;53.178;6.376;2024-03-02T08:45:40;8.80;99.90
51793;DHT22;37850;53.178;6.376;2024-03-02T08:48:09;8.80;99.90
51793;DHT22;37850;53.178;6.376;2024-03-02T08:50:35;8.70;99.90
51793;DHT22;37850;53.178;6.376;2024-03-02T08:53:03;8.80;99.90
51793;DHT22;37850;53.178;6.376;2024-03-02T08:55:30;8.60;99.90
51793;DHT22;37850;53.178;6.376;2024-03-02T08:57:56;8.60;99.90
51793;DHT22;37850;53.178;6.376;2024-03-02T09:00:22;8.60;99.90
51793;DHT22;37850;53.178;6.376;2024-03-02T09:02:49;8.60;99.90
51793;DHT22;37850;53.178;6.376;2024-03-02T09:05:15;8.70;99.90
51793;DHT22;37850;53.178;6.376;2024-03-02T09:07:41;8.60;99.90
51793;DHT22;37850;53.178;6.376;2024-03-02T09:10:07;9.00;99.90
51793;DHT22;37850;53.178;6.376;2024-03-02T09:12:34;8.60;99.90
51793;DHT22;37850;53.178;6.376;2024-03-02T09:15:03;9.10;99.90
51793;DHT22;37850;53.178;6.376;2024-03-02T09:17:29;8.60;99.90
51793;DHT22;37850;53.178;6.376;2024-03-02T09:19:55;8.70;99.90
51793;DHT22;37850;53.178;6.376;2024-03-02T09:22:21;8.70;99.90
51793;DHT22;37850;53.178;6.376;2024-03-02T09:24:47;8.70;99.90
51793;DHT22;37850;53.178;6.376;2024-03-02T09:27:12;8.70;99.90
51793;DHT22;37850;53.178;6.376;2024-03-02T09:29:38;8.70;99.90
51793;DHT22;37850;53.178;6.376;2024-03-02T09:32:05;8.70;99.90
51793;DHT22;37850;53.178;6.376;2024-03-02T09:34:31;8.70;99.90
51793;DHT22;37850;53.178;6.376;2024-03-02T09:36:57;8.70;99.90
51793;DHT22;37850;53.178;6.376;2024-03-02T09:39:23;8.70;99.90
51793;DHT22;37850;53.178;6.376;2024-03-02T09:41:51;8.80;99.90
51793;DHT22;37850;53.178;6.376;2024-03-02T09:44:17;8.70;99.90
51793;DHT22;37850;53.178;6.376;2024-03-02T09:46:43;8.70;99.90
51793;DHT22;37850;53.178;6.376;2024-03-02T09:49:10;8.70;99.90
51793;DHT22;37850;53.178;6.376;2024-03-02T09:51:37;8.80;99.90
51793;DHT22;37850;53.178;6.376;2024-03-02T09:54:03;8.80;99.90
51793;DHT22;37850;53.178;6.376;2024-03-02T09:56:29;9.30;99.90
51793;DHT22;37850;53.178;6.376;2024-03-02T09:58:55;9.00;99.90
51793;DHT22;37850;53.178;6.376;2024-03-02T10:01:20;8.80;99.90
51793;DHT22;37850;53.178;6.376;2024-03-02T10:03:47;8.80;99.90
51793;DHT22;37850;53.178;6.376;2024-03-02T10:06:31;8.80;99.90
51793;DHT22;37850;53.178;6.376;2024-03-02T10:08:56;8.90;99.90
51793;DHT22;37850;53.178;6.376;2024-03-02T10:14:11;9.00;99.90
51793;DHT22;37850;53.178;6.376;2024-03-02T10:16:42;9.00;99.90
51793;DHT22;37850;53.178;6.376;2024-03-02T10:19:23;9.00;99.90
51793;DHT22;37850;53.178;6.376;2024-03-02T10:21:50;9.10;99.90
51793;DHT22;37850;53.178;6.376;2024-03-02T10:24:21;9.10;99.90
51793;DHT22;37850;53.178;6.376;2024-03-02T10:26:47;9.20;99.90
51793;DHT22;37850;53.178;6.376;2024-03-02T10:29:13;9.20;99.90
51793;DHT22;37850;53.178;6.376;2024-03-02T10:31:40;9.20;99.90
51793;DHT22;37850;53.178;6.376;2024-03-02T10:34:07;9.30;99.90
51793;DHT22;37850;53.178;6.376;2024-03-02T10:36:34;9.40;99.90
51793;DHT22;37850;53.178;6.376;2024-03-02T10:39:07;9.40;99.90
51793;DHT22;37850;53.178;6.376;2024-03-02T10:41:34;9.40;99.90
51793;DHT22;37850;53.178;6.376;2024-03-02T10:44:03;9.60;99.90
51793;DHT22;37850;53.178;6.376;2024-03-02T10:46:30;9.40;99.90
51793;DHT22;37850;53.178;6.376;2024-03-02T10:49:00;9.50;99.90
51793;DHT22;37850;53.178;6.376;2024-03-02T10:51:31;9.50;99.90
51793;DHT22;37850;53.178;6.376;2024-03-02T10:54:01;9.60;99.90
51793;DHT22;37850;53.178;6.376;2024-03-02T10:56:31;9.60;99.90
51793;DHT22;37850;53.178;6.376;2024-03-02T10:59:27;9.60;99.90
51793;DHT22;37850;53.178;6.376;2024-03-02T11:01:57;9.60;99.90
51793;DHT22;37850;53.178;6.376;2024-03-02T11:04:27;9.60;99.90
51793;DHT22;37850;53.178;6.376;2024-03-02T11:07:04;9.50;99.90
51793;DHT22;37850;53.178;6.376;2024-03-02T11:09:33;9.60;99.90
51793;DHT22;37850;53.178;6.376;2024-03-02T11:14:32;9.60;99.90
51793;DHT22;37850;53.178;6.376;2024-03-02T11:17:00;9.60;99.90
51793;DHT22;37850;53.178;6.376;2024-03-02T11:19:27;9.60;99.90
51793;DHT22;37850;53.178;6.376;2024-03-02T11:21:54;9.60;99.90
51793;DHT22;37850;53.178;6.376;2024-03-02T11:27:07;9.60;99.90
51793;DHT22;37850;53.178;6.376;2024-03-02T11:32:16;9.70;99.90
51793;DHT22;37850;53.178;6.376;2024-03-02T11:34:45;9.90;99.90
51793;DHT22;37850;53.178;6.376;2024-03-02T11:37:16;10.40;99.90
51793;DHT22;37850;53.178;6.376;2024-03-02T11:39:44;9.90;99.90
51793;DHT22;37850;53.178;6.376;2024-03-02T11:42:11;9.90;99.90
51793;DHT22;37850;53.178;6.376;2024-03-02T11:44:42;10.00;99.90
51793;DHT22;37850;53.178;6.376;2024-03-02T11:47:11;10.00;99.90
51793;DHT22;37850;53.178;6.376;2024-03-02T11:49:41;10.20;99.90
51793;DHT22;37850;53.178;6.376;2024-03-02T11:52:09;10.10;99.90
51793;DHT22;37850;53.178;6.376;2024-03-02T11:54:37;10.20;99.90
51793;DHT22;37850;53.178;6.376;2024-03-02T11:57:06;10.30;99.90
51793;DHT22;37850;53.178;6.376;2024-03-02T11:59:32;10.30;99.90
51793;DHT22;37850;53.178;6.376;2024-03-02T12:01:59;10.30;99.90
51793;DHT22;37850;53.178;6.376;2024-03-02T12:04:25;10.40;99.90
51793;DHT22;37850;53.178;6.376;2024-03-02T12:07:10;10.50;99.90
51793;DHT22;37850;53.178;6.376;2024-03-02T12:09:36;10.50;99.90
51793;DHT22;37850;53.178;6.376;2024-03-02T12:12:06;10.60;99.90
51793;DHT22;37850;53.178;6.376;2024-03-02T12:14:33;10.70;99.90
51793;DHT22;37850;53.178;6.376;2024-03-02T12:16:59;10.70;99.90
51793;DHT22;37850;53.178;6.376;2024-03-02T12:19:28;10.80;99.90
51793;DHT22;37850;53.178;6.376;2024-03-02T12:22:01;10.80;99.90
51793;DHT22;37850;53.178;6.376;2024-03-02T12:24:28;10.90;99.90
51793;DHT22;37850;53.178;6.376;2024-03-02T12:26:54;10.90;99.90
51793;DHT22;37850;53.178;6.376;2024-03-02T12:29:21;10.90;99.90
51793;DHT22;37850;53.178;6.376;2024-03-02T12:31:51;11.00;99.90
51793;DHT22;37850;53.178;6.376;2024-03-02T12:34:18;11.00;99.90
51793;DHT22;37850;53.178;6.376;2024-03-02T12:36:46;11.00;99.90
51793;DHT22;37850;53.178;6.376;2024-03-02T12:39:15;11.10;99.90
51793;DHT22;37850;53.178;6.376;2024-03-02T12:41:41;11.10;99.90
51793;DHT22;37850;53.178;6.376;2024-03-02T12:44:08;11.10;99.90
51793;DHT22;37850;53.178;6.376;2024-03-02T12:46:34;11.30;99.90
51793;DHT22;37850;53.178;6.376;2024-03-02T12:49:09;11.20;99.90
51793;DHT22;37850;53.178;6.376;2024-03-02T12:51:39;11.20;99.90
51793;DHT22;37850;53.178;6.376;2024-03-02T12:54:09;11.20;99.90
51793;DHT22;37850;53.178;6.376;2024-03-02T12:56:42;11.30;99.90
51793;DHT22;37850;53.178;6.376;2024-03-02T12:59:21;11.30;99.90
51793;DHT22;37850;53.178;6.376;2024-03-02T13:01:56;11.40;99.90
51793;DHT22;37850;53.178;6.376;2024-03-02T13:04:24;11.40;99.90
51793;DHT22;37850;53.178;6.376;2024-03-02T13:06:52;11.40;99.90
51793;DHT22;37850;53.178;6.376;2024-03-02T13:09:18;11.40;99.90
51793;DHT22;37850;53.178;6.376;2024-03-02T13:11:43;11.40;99.90
51793;DHT22;37850;53.178;6.376;2024-03-02T13:14:10;11.50;99.90
51793;DHT22;37850;53.178;6.376;2024-03-02T13:16:44;11.50;99.90
51793;DHT22;37850;53.178;6.376;2024-03-02T13:19:13;11.50;99.90
51793;DHT22;37850;53.178;6.376;2024-03-02T13:21:39;11.50;99.90
51793;DHT22;37850;53.178;6.376;2024-03-02T13:24:05;11.50;99.90
51793;DHT22;37850;53.178;6.376;2024-03-02T13:26:31;11.50;99.90
51793;DHT22;37850;53.178;6.376;2024-03-02T13:28:57;11.60;99.90
51793;DHT22;37850;53.178;6.376;2024-03-02T13:31:28;11.60;99.90
51793;DHT22;37850;53.178;6.376;2024-03-02T13:33:54;11.60;99.90
51793;DHT22;37850;53.178;6.376;2024-03-02T13:36:20;11.70;99.90
51793;DHT22;37850;53.178;6.376;2024-03-02T13:38:45;11.70;99.90
51793;DHT22;37850;53.178;6.376;2024-03-02T13:41:11;11.70;99.90
51793;DHT22;37850;53.178;6.376;2024-03-02T13:43:37;11.70;99.90
51793;DHT22;37850;53.178;6.376;2024-03-02T13:46:04;11.70;99.90
51793;DHT22;37850;53.178;6.376;2024-03-02T13:48:30;11.70;99.90
51793;DHT22;37850;53.178;6.376;2024-03-02T13:50:56;11.70;99.90
51793;DHT22;37850;53.178;6.376;2024-03-02T13:53:22;11.70;99.90
51793;DHT22;37850;53.178;6.376;2024-03-02T13:55:49;11.70;99.90
51793;DHT22;37850;53.178;6.376;2024-03-02T13:58:15;11.70;99.90
51793;DHT22;37850;53.178;6.376;2024-03-02T14:00:40;11.70;99.90
51793;DHT22;37850;53.178;6.376;2024-03-02T14:03:06;12.00;99.90
51793;DHT22;37850;53.178;6.376;2024-03-02T14:05:33;11.60;99.90
51793;DHT22;37850;53.178;6.376;2024-03-02T14:07:59;11.60;99.90
51793;DHT22;37850;53.178;6.376;2024-03-02T14:10:26;11.60;99.90
51793;DHT22;37850;53.178;6.376;2024-03-02T14:12:52;11.60;99.90
51793;DHT22;37850;53.178;6.376;2024-03-02T14:15:18;11.50;99.90
51793;DHT22;37850;53.178;6.376;2024-03-02T14:17:44;11.50;99.90
51793;DHT22;37850;53.178;6.376;2024-03-02T14:20:10;11.50;99.90
51793;DHT22;37850;53.178;6.376;2024-03-02T14:22:37;11.50;99.90
51793;DHT22;37850;53.178;6.376;2024-03-02T14:25:03;11.50;99.90
51793;DHT22;37850;53.178;6.376;2024-03-02T14:27:29;11.50;99.90
51793;DHT22;37850;53.178;6.376;2024-03-02T14:29:55;11.50;99.90
51793;DHT22;37850;53.178;6.376;2024-03-02T14:32:21;11.50;99.90
51793;DHT22;37850;53.178;6.376;2024-03-02T14:34:46;11.50;99.90
51793;DHT22;37850;53.178;6.376;2024-03-02T14:37:14;11.50;99.90
51793;DHT22;37850;53.178;6.376;2024-03-02T14:39:40;11.50;99.90
51793;DHT22;37850;53.178;6.376;2024-03-02T14:42:06;11.50;99.90
51793;DHT22;37850;53.178;6.376;2024-03-02T14:44:33;11.50;99.90
51793;DHT22;37850;53.178;6.376;2024-03-02T14:47:01;11.50;99.90
51793;DHT22;37850;53.178;6.376;2024-03-02T14:49:27;11.50;99.90
51793;DHT22;37850;53.178;6.376;2024-03-02T14:51:56;11.50;99.90
51793;DHT22;37850;53.178;6.376;2024-03-02T14:54:22;11.60;99.90
51793;DHT22;37850;53.178;6.376;2024-03-02T14:56:49;11.60;99.90
51793;DHT22;37850;53.178;6.376;2024-03-02T14:59:15;11.60;99.90
51793;DHT22;37850;53.178;6.376;2024-03-02T15:01:41;11.60;99.90
51793;DHT22;37850;53.178;6.376;2024-03-02T15:04:07;11.60;99.90
51793;DHT22;37850;53.178;6.376;2024-03-02T15:06:38;11.60;99.90
51793;DHT22;37850;53.178;6.376;2024-03-02T15:09:03;11.70;99.90
51793;DHT22;37850;53.178;6.376;2024-03-02T15:11:29;11.70;99.90
51793;DHT22;37850;53.178;6.376;2024-03-02T15:13:55;11.70;99.90
51793;DHT22;37850;53.178;6.376;2024-03-02T15:16:21;11.80;99.90
51793;DHT22;37850;53.178;6.376;2024-03-02T15:18:47;11.80;99.90
51793;DHT22;37850;53.178;6.376;2024-03-02T15:21:12;11.80;99.90
51793;DHT22;37850;53.178;6.376;2024-03-02T15:23:38;11.80;99.90
51793;DHT22;37850;53.178;6.376;2024-03-02T15:26:04;11.90;99.90
51793;DHT22;37850;53.178;6.376;2024-03-02T15:28:30;11.90;99.90
51793;DHT22;37850;53.178;6.376;2024-03-02T15:30:55;11.90;99.90
51793;DHT22;37850;53.178;6.376;2024-03-02T15:33:21;12.00;99.90
51793;DHT22;37850;53.178;6.376;2024-03-02T15:35:50;11.90;99.90
51793;DHT22;37850;53.178;6.376;2024-03-02T15:38:16;11.90;99.90
51793;DHT22;37850;53.178;6.376;2024-03-02T15:40:42;12.00;99.90
51793;DHT22;37850;53.178;6.376;2024-03-02T15:43:08;12.00;99.90
51793;DHT22;37850;53.178;6.376;2024-03-02T15:45:34;12.00;99.90
51793;DHT22;37850;53.178;6.376;2024-03-02T15:48:00;12.00;99.90
51793;DHT22;37850;53.178;6.376;2024-03-02T15:50:29;12.00;99.90
51793;DHT22;37850;53.178;6.376;2024-03-02T15:52:54;12.00;99.90